createdAt,value
2022-10-09T00:00:11.909Z,10.90
2022-10-09T00:01:18.880Z,10.83
2022-10-09T00:02:15.762Z,10.93
2022-10-09T00:03:13.579Z,10.60
2022-10-09T00:04:10.247Z,10.95
2022-10-09T00:05:07.330Z,10.89
2022-10-09T00:06:06.191Z,10.67
2022-10-09T00:07:02.877Z,10.61
2022-10-09T00:07:59.678Z,10.89
2022-10-09T00:08:57.187Z,11.11
2022-10-09T00:09:53.874Z,11.30
2022-10-09T00:10:50.818Z,11.29
2022-10-09T00:11:48.018Z,10.31
2022-10-09T00:12:45.244Z,11.27
2022-10-09T00:13:42.360Z,10.98
2022-10-09T00:14:39.092Z,11.38
2022-10-09T00:15:44.254Z,10.45
2022-10-09T00:16:41.061Z,11.02
2022-10-09T00:17:38.195Z,10.83
2022-10-09T00:18:36.017Z,10.83
2022-10-09T00:19:32.696Z,10.84
2022-10-09T00:20:29.849Z,10.76
2022-10-09T00:21:29.273Z,9.88
2022-10-09T00:22:25.988Z,10.53
2022-10-09T00:23:22.818Z,10.53
2022-10-09T00:24:19.493Z,9.74
2022-10-09T00:25:16.350Z,10.72
2022-10-09T00:26:13.316Z,10.96
2022-10-09T00:27:10.021Z,11.19
2022-10-09T00:28:06.752Z,11.17
2022-10-09T00:29:03.738Z,10.78
2022-10-09T00:30:00.562Z,11.03
2022-10-09T00:30:57.586Z,11.12
2022-10-09T00:31:54.305Z,10.96
2022-10-09T00:32:51.208Z,10.62
2022-10-09T00:33:48.059Z,10.36
2022-10-09T00:34:45.239Z,10.19
2022-10-09T00:35:42.938Z,10.46
2022-10-09T00:36:39.642Z,9.62
2022-10-09T00:37:36.326Z,10.57
2022-10-09T00:38:33.882Z,10.58
2022-10-09T00:39:30.960Z,10.06
2022-10-09T00:40:27.650Z,10.54
2022-10-09T00:41:27.424Z,10.51
2022-10-09T00:42:26.298Z,10.65
2022-10-09T00:43:48.071Z,10.33
2022-10-09T00:45:00.447Z,10.24
2022-10-09T00:45:57.322Z,10.32
2022-10-09T00:46:54.065Z,10.25
2022-10-09T00:47:55.843Z,10.54
2022-10-09T00:49:00.399Z,10.55
2022-10-09T00:50:20.202Z,10.53
2022-10-09T00:51:16.985Z,10.73
2022-10-09T00:52:14.171Z,10.66
2022-10-09T00:53:15.808Z,10.65
2022-10-09T00:54:16.475Z,10.25
2022-10-09T00:55:14.977Z,10.59
2022-10-09T00:56:11.669Z,10.18
2022-10-09T00:57:09.440Z,10.47
2022-10-09T00:58:06.950Z,10.38
2022-10-09T00:59:05.377Z,10.39
2022-10-09T01:00:06.371Z,10.58
2022-10-09T01:01:03.106Z,10.40
2022-10-09T01:02:00.163Z,10.57
2022-10-09T01:02:57.173Z,10.65
2022-10-09T01:03:53.879Z,10.21
2022-10-09T01:04:50.549Z,10.59
2022-10-09T01:06:13.913Z,11.03
2022-10-09T01:07:35.556Z,11.11
2022-10-09T01:08:45.542Z,10.86
2022-10-09T01:09:42.179Z,10.74
2022-10-09T01:10:55.882Z,10.58
2022-10-09T01:12:06.055Z,10.60
2022-10-09T01:13:11.672Z,10.60
2022-10-09T01:14:26.074Z,10.55
2022-10-09T01:15:33.527Z,10.37
2022-10-09T01:16:39.598Z,10.58
2022-10-09T01:17:42.405Z,10.66
2022-10-09T01:18:57.861Z,10.62
2022-10-09T01:20:27.296Z,10.64
2022-10-09T01:21:37.587Z,10.39
2022-10-09T01:22:58.582Z,10.78
2022-10-09T01:24:05.225Z,10.74
2022-10-09T01:25:11.038Z,10.62
2022-10-09T01:26:23.779Z,10.54
2022-10-09T01:27:28.114Z,9.56
2022-10-09T01:28:30.209Z,9.46
2022-10-09T01:29:35.626Z,10.50
2022-10-09T01:30:35.077Z,10.27
2022-10-09T01:31:39.454Z,10.03
2022-10-09T01:32:44.137Z,10.45
2022-10-09T01:33:41.458Z,10.49
2022-10-09T01:34:41.071Z,10.21
2022-10-09T01:35:40.063Z,10.38
2022-10-09T01:36:39.724Z,10.42
2022-10-09T01:37:42.035Z,10.43
2022-10-09T01:38:42.656Z,10.52
2022-10-09T01:39:42.938Z,10.40
2022-10-09T01:40:39.625Z,8.52
2022-10-09T01:41:37.598Z,10.40
2022-10-09T01:42:34.751Z,10.40
2022-10-09T01:43:31.460Z,9.71
2022-10-09T01:44:31.783Z,10.36
2022-10-09T01:45:39.907Z,9.86
2022-10-09T01:46:36.755Z,10.06
2022-10-09T01:47:34.202Z,10.21
2022-10-09T01:48:31.942Z,10.28
2022-10-09T01:49:44.786Z,9.83
2022-10-09T01:50:46.586Z,10.38
2022-10-09T01:52:06.785Z,10.37
2022-10-09T01:53:14.870Z,9.32
2022-10-09T01:54:15.183Z,10.08
2022-10-09T01:55:36.348Z,10.45
2022-10-09T01:56:39.033Z,10.40
2022-10-09T01:57:46.462Z,9.82
2022-10-09T01:58:54.879Z,10.33
2022-10-09T01:59:54.684Z,10.41
2022-10-09T02:01:13.669Z,10.06
2022-10-09T02:02:11.661Z,10.23
2022-10-09T02:03:14.477Z,10.38
2022-10-09T02:04:15.117Z,10.05
2022-10-09T02:05:20.076Z,10.40
2022-10-09T02:06:18.649Z,10.62
2022-10-09T02:07:17.291Z,10.58
2022-10-09T02:08:19.109Z,9.89
2022-10-09T02:09:18.291Z,10.39
2022-10-09T02:10:18.434Z,10.44
2022-10-09T02:11:15.962Z,10.31
2022-10-09T02:12:17.634Z,10.58
2022-10-09T02:13:14.291Z,10.59
2022-10-09T02:14:11.756Z,9.65
2022-10-09T02:15:09.679Z,10.27
2022-10-09T02:16:18.949Z,10.51
2022-10-09T02:17:27.121Z,10.39
2022-10-09T02:18:45.387Z,10.09
2022-10-09T02:19:48.859Z,9.43
2022-10-09T02:20:51.957Z,10.07
2022-10-09T02:21:54.712Z,10.20
2022-10-09T02:22:53.392Z,10.14
2022-10-09T02:23:51.958Z,9.84
2022-10-09T02:24:48.936Z,10.20
2022-10-09T02:25:46.378Z,9.38
2022-10-09T02:26:43.306Z,10.49
2022-10-09T02:27:40.122Z,9.43
2022-10-09T02:28:37.449Z,10.59
2022-10-09T02:29:34.499Z,10.66
2022-10-09T02:30:48.199Z,10.74
2022-10-09T02:31:45.702Z,9.96
2022-10-09T02:32:42.411Z,10.16
2022-10-09T02:33:39.292Z,9.22
2022-10-09T02:34:36.019Z,10.04
2022-10-09T02:35:33.097Z,10.14
2022-10-09T02:36:31.356Z,10.20
2022-10-09T02:37:28.099Z,10.32
2022-10-09T02:38:24.944Z,9.32
2022-10-09T02:39:21.634Z,10.36
2022-10-09T02:40:18.326Z,10.29
2022-10-09T02:41:15.017Z,10.24
2022-10-09T02:42:11.718Z,9.81
2022-10-09T02:43:08.393Z,10.15
2022-10-09T02:44:06.477Z,10.04
2022-10-09T02:45:03.390Z,9.85
2022-10-09T02:46:00.155Z,9.23
2022-10-09T02:46:56.931Z,10.05
2022-10-09T02:47:53.619Z,10.09
2022-10-09T02:48:50.383Z,10.29
2022-10-09T02:49:47.049Z,10.40
2022-10-09T02:50:43.816Z,10.50
2022-10-09T02:51:40.502Z,10.58
2022-10-09T02:52:37.211Z,10.57
2022-10-09T02:53:33.936Z,10.03
2022-10-09T02:54:30.934Z,9.99
2022-10-09T02:55:27.697Z,8.81
2022-10-09T02:56:24.428Z,10.17
2022-10-09T02:57:21.128Z,10.29
2022-10-09T02:58:17.901Z,10.23
2022-10-09T02:59:14.650Z,10.36
2022-10-09T03:00:12.086Z,10.49
2022-10-09T03:01:08.853Z,10.45
2022-10-09T03:02:05.627Z,10.35
2022-10-09T03:03:02.410Z,10.23
2022-10-09T03:03:59.248Z,9.41
2022-10-09T03:04:55.969Z,10.02
2022-10-09T03:06:02.633Z,9.94
2022-10-09T03:06:59.399Z,9.30
2022-10-09T03:07:56.163Z,10.21
2022-10-09T03:08:54.284Z,9.66
2022-10-09T03:09:51.021Z,10.14
2022-10-09T03:10:47.702Z,10.13
2022-10-09T03:11:44.469Z,10.25
2022-10-09T03:12:41.217Z,10.11
2022-10-09T03:13:39.781Z,9.97
2022-10-09T03:14:36.534Z,9.86
2022-10-09T03:15:37.465Z,9.95
2022-10-09T03:16:34.224Z,9.71
2022-10-09T03:17:30.992Z,9.93
2022-10-09T03:18:27.721Z,9.87
2022-10-09T03:19:24.533Z,9.82
2022-10-09T03:20:21.569Z,9.81
2022-10-09T03:21:21.450Z,9.89
2022-10-09T03:22:18.121Z,9.65
2022-10-09T03:23:14.777Z,9.82
2022-10-09T03:24:11.541Z,9.79
2022-10-09T03:25:08.410Z,9.82
2022-10-09T03:26:08.560Z,9.70
2022-10-09T03:27:06.371Z,10.00
2022-10-09T03:28:03.506Z,9.27
2022-10-09T03:29:00.283Z,9.93
2022-10-09T03:29:58.548Z,9.52
2022-10-09T03:30:55.980Z,9.29
2022-10-09T03:31:53.505Z,9.90
2022-10-09T03:32:50.787Z,9.88
2022-10-09T03:33:47.758Z,9.91
2022-10-09T03:34:44.458Z,9.64
2022-10-09T03:35:41.875Z,9.34
2022-10-09T03:36:38.562Z,9.93
2022-10-09T03:37:35.606Z,9.41
2022-10-09T03:38:32.790Z,9.03
2022-10-09T03:39:29.476Z,9.67
2022-10-09T03:40:26.110Z,9.18
2022-10-09T03:41:22.789Z,9.11
2022-10-09T03:42:19.481Z,9.63
2022-10-09T03:43:16.184Z,9.90
2022-10-09T03:44:12.898Z,8.87
2022-10-09T03:45:10.020Z,9.94
2022-10-09T03:46:08.517Z,10.07
2022-10-09T03:47:05.204Z,10.13
2022-10-09T03:48:01.910Z,10.20
2022-10-09T03:48:58.647Z,10.25
2022-10-09T03:49:55.334Z,10.07
2022-10-09T03:50:52.154Z,10.03
2022-10-09T03:51:48.852Z,10.27
2022-10-09T03:52:45.708Z,10.27
2022-10-09T03:53:42.586Z,9.85
2022-10-09T03:54:39.304Z,10.14
2022-10-09T03:55:36.014Z,9.87
2022-10-09T03:56:32.749Z,9.73
2022-10-09T03:57:29.585Z,10.07
2022-10-09T03:58:26.519Z,10.23
2022-10-09T03:59:23.357Z,10.27
2022-10-09T04:00:20.096Z,10.30
2022-10-09T04:01:16.929Z,10.33
2022-10-09T04:02:13.779Z,10.02
2022-10-09T04:03:10.613Z,10.32
2022-10-09T04:04:07.298Z,10.35
2022-10-09T04:05:04.589Z,10.08
2022-10-09T04:06:01.358Z,9.89
2022-10-09T04:06:58.044Z,9.79
2022-10-09T04:07:54.725Z,9.69
2022-10-09T04:08:51.406Z,9.71
2022-10-09T04:09:48.262Z,9.74
2022-10-09T04:10:44.965Z,9.73
2022-10-09T04:11:41.666Z,9.67
2022-10-09T04:12:38.717Z,9.76
2022-10-09T04:13:35.586Z,9.65
2022-10-09T04:14:32.325Z,9.33
2022-10-09T04:15:29.087Z,9.77
2022-10-09T04:16:25.830Z,9.65
2022-10-09T04:17:22.559Z,9.67
2022-10-09T04:18:19.495Z,8.75
2022-10-09T04:19:16.218Z,8.75
2022-10-09T04:20:12.891Z,9.04
2022-10-09T04:21:10.026Z,9.32
2022-10-09T04:22:06.794Z,9.63
2022-10-09T04:23:03.454Z,9.85
2022-10-09T04:24:00.218Z,9.54
2022-10-09T04:24:56.919Z,9.55
2022-10-09T04:25:59.456Z,9.81
2022-10-09T04:26:56.966Z,9.77
2022-10-09T04:27:53.670Z,9.80
2022-10-09T04:28:50.646Z,9.89
2022-10-09T04:29:47.414Z,9.71
2022-10-09T04:30:44.138Z,9.97
2022-10-09T04:31:40.947Z,9.87
2022-10-09T04:32:38.924Z,9.87
2022-10-09T04:33:35.706Z,9.65
2022-10-09T04:34:32.440Z,9.60
2022-10-09T04:35:29.117Z,9.45
2022-10-09T04:36:25.798Z,9.62
2022-10-09T04:37:22.553Z,9.37
2022-10-09T04:38:20.632Z,9.58
2022-10-09T04:39:17.430Z,8.40
2022-10-09T04:40:14.262Z,9.31
2022-10-09T04:41:11.059Z,9.42
2022-10-09T04:42:08.064Z,9.45
2022-10-09T04:43:04.771Z,9.39
2022-10-09T04:44:01.479Z,8.99
2022-10-09T04:44:58.273Z,9.60
2022-10-09T04:45:55.263Z,9.37
2022-10-09T04:46:52.150Z,9.48
2022-10-09T04:47:48.950Z,9.64
2022-10-09T04:48:46.401Z,9.74
2022-10-09T04:49:44.630Z,8.80
2022-10-09T04:50:41.339Z,10.08
2022-10-09T04:51:38.012Z,9.83
2022-10-09T04:52:34.722Z,10.03
2022-10-09T04:53:31.427Z,10.16
2022-10-09T04:54:28.127Z,10.17
2022-10-09T04:55:24.920Z,10.22
2022-10-09T04:56:22.923Z,10.03
2022-10-09T04:57:19.629Z,9.73
2022-10-09T04:58:16.321Z,9.94
2022-10-09T04:59:13.016Z,9.83
2022-10-09T05:00:10.400Z,9.77
2022-10-09T05:01:08.809Z,9.73
2022-10-09T05:02:05.643Z,9.67
2022-10-09T05:03:02.538Z,8.21
2022-10-09T05:03:59.222Z,9.63
2022-10-09T05:04:57.329Z,9.64
2022-10-09T05:05:54.111Z,9.94
2022-10-09T05:06:50.791Z,9.62
2022-10-09T05:07:47.591Z,9.86
2022-10-09T05:08:44.421Z,9.60
2022-10-09T05:09:41.124Z,10.33
2022-10-09T05:10:37.836Z,10.15
2022-10-09T05:11:35.687Z,10.13
2022-10-09T05:12:33.885Z,10.04
2022-10-09T05:13:36.807Z,10.25
2022-10-09T05:14:33.484Z,10.13
2022-10-09T05:15:30.199Z,9.80
2022-10-09T05:16:29.355Z,10.27
2022-10-09T05:17:26.180Z,10.15
2022-10-09T05:18:22.897Z,8.45
2022-10-09T05:19:19.671Z,10.18
2022-10-09T05:20:16.800Z,10.31
2022-10-09T05:21:13.758Z,10.17
2022-10-09T05:22:10.482Z,10.23
2022-10-09T05:23:07.279Z,10.75
2022-10-09T05:24:08.272Z,9.92
2022-10-09T05:25:07.685Z,9.42
2022-10-09T05:26:09.232Z,10.31
2022-10-09T05:27:06.087Z,10.28
2022-10-09T05:28:02.871Z,10.06
2022-10-09T05:28:59.562Z,10.25
2022-10-09T05:29:56.312Z,9.60
2022-10-09T05:30:53.932Z,10.45
2022-10-09T05:31:50.748Z,10.44
2022-10-09T05:32:47.805Z,10.17
2022-10-09T05:33:45.055Z,10.20
2022-10-09T05:34:42.651Z,10.53
2022-10-09T05:35:39.432Z,10.70
2022-10-09T05:36:36.569Z,10.92
2022-10-09T05:37:33.434Z,11.13
2022-10-09T05:38:30.537Z,10.92
2022-10-09T05:39:27.211Z,10.62
2022-10-09T05:40:28.981Z,11.08
2022-10-09T05:41:25.990Z,10.42
2022-10-09T05:42:22.680Z,11.23
2022-10-09T05:43:20.021Z,11.31
2022-10-09T05:44:16.742Z,11.38
2022-10-09T05:45:13.510Z,11.44
2022-10-09T05:46:14.659Z,11.47
2022-10-09T05:47:13.602Z,11.45
2022-10-09T05:48:10.353Z,11.58
2022-10-09T05:49:07.224Z,11.72
2022-10-09T05:50:04.224Z,11.75
2022-10-09T05:51:11.735Z,11.69
2022-10-09T05:52:08.424Z,11.36
2022-10-09T05:53:05.094Z,11.81
2022-10-09T05:54:02.318Z,11.58
2022-10-09T05:54:59.055Z,11.39
2022-10-09T05:55:56.559Z,11.37
2022-10-09T05:56:55.338Z,11.49
2022-10-09T05:57:53.148Z,11.26
2022-10-09T05:59:01.797Z,11.54
2022-10-09T05:59:58.644Z,11.37
2022-10-09T06:01:00.262Z,10.93
2022-10-09T06:01:57.061Z,11.27
2022-10-09T06:02:54.839Z,11.41
2022-10-09T06:03:53.814Z,11.43
2022-10-09T06:04:50.596Z,10.98
2022-10-09T06:05:47.364Z,11.47
2022-10-09T06:06:45.134Z,11.31
2022-10-09T06:07:42.166Z,11.61
2022-10-09T06:08:39.112Z,11.47
2022-10-09T06:09:35.858Z,11.54
2022-10-09T06:10:32.769Z,11.60
2022-10-09T06:11:35.628Z,11.15
2022-10-09T06:12:32.422Z,11.59
2022-10-09T06:13:29.135Z,11.65
2022-10-09T06:14:26.147Z,11.59
2022-10-09T06:15:22.843Z,11.82
2022-10-09T06:16:19.655Z,12.06
2022-10-09T06:17:16.536Z,11.75
2022-10-09T06:18:13.260Z,11.68
2022-10-09T06:19:15.679Z,11.63
2022-10-09T06:20:13.465Z,11.52
2022-10-09T06:21:10.241Z,11.27
2022-10-09T06:22:06.985Z,11.05
2022-10-09T06:23:03.676Z,11.47
2022-10-09T06:24:02.290Z,11.77
2022-10-09T06:24:58.978Z,11.61
2022-10-09T06:25:59.039Z,11.67
2022-10-09T06:26:57.211Z,10.71
2022-10-09T06:27:53.899Z,11.64
2022-10-09T06:28:51.762Z,11.74
2022-10-09T06:29:48.500Z,12.00
2022-10-09T06:30:45.243Z,12.12
2022-10-09T06:31:42.070Z,12.23
2022-10-09T06:32:38.705Z,12.17
2022-10-09T06:33:37.435Z,11.91
2022-10-09T06:34:34.151Z,12.01
2022-10-09T06:35:34.638Z,12.15
2022-10-09T06:36:34.680Z,11.99
2022-10-09T06:37:31.375Z,12.01
2022-10-09T06:38:28.819Z,11.72
2022-10-09T06:39:26.620Z,12.01
2022-10-09T06:40:23.349Z,12.29
2022-10-09T06:41:23.402Z,12.21
2022-10-09T06:42:20.117Z,12.35
2022-10-09T06:43:16.790Z,12.28
2022-10-09T06:44:17.199Z,11.61
2022-10-09T06:45:14.195Z,11.31
2022-10-09T06:46:12.770Z,11.88
2022-10-09T06:47:09.535Z,12.07
2022-10-09T06:48:06.343Z,12.19
2022-10-09T06:49:04.781Z,12.37
2022-10-09T06:50:01.498Z,12.21
2022-10-09T06:51:22.508Z,12.41
2022-10-09T06:52:19.218Z,12.45
2022-10-09T06:53:15.911Z,12.02
2022-10-09T06:54:16.256Z,12.57
2022-10-09T06:55:13.090Z,12.31
2022-10-09T06:56:11.123Z,12.60
2022-10-09T06:57:07.931Z,12.69
2022-10-09T06:58:04.852Z,12.85
2022-10-09T06:59:07.309Z,13.00
2022-10-09T07:00:05.119Z,12.73
2022-10-09T07:01:16.875Z,12.81
2022-10-09T07:02:13.778Z,12.78
2022-10-09T07:03:10.547Z,12.69
2022-10-09T07:04:11.819Z,12.77
2022-10-09T07:05:08.899Z,12.99
2022-10-09T07:06:11.153Z,13.02
2022-10-09T07:07:07.825Z,12.54
2022-10-09T07:08:04.661Z,12.88
2022-10-09T07:09:04.513Z,13.18
2022-10-09T07:10:01.224Z,13.26
2022-10-09T07:10:57.913Z,13.29
2022-10-09T07:11:54.617Z,13.54
2022-10-09T07:12:51.604Z,13.50
2022-10-09T07:13:51.591Z,13.26
2022-10-09T07:14:48.293Z,13.58
2022-10-09T07:15:46.056Z,13.22
2022-10-09T07:16:45.981Z,13.64
2022-10-09T07:17:42.688Z,13.52
2022-10-09T07:18:39.943Z,13.73
2022-10-09T07:19:36.688Z,13.44
2022-10-09T07:20:36.337Z,13.33
2022-10-09T07:21:34.867Z,13.45
2022-10-09T07:22:32.583Z,13.48
2022-10-09T07:23:30.331Z,13.48
2022-10-09T07:24:27.129Z,13.68
2022-10-09T07:25:23.928Z,13.74
2022-10-09T07:26:23.684Z,13.84
2022-10-09T07:27:20.428Z,13.69
2022-10-09T07:28:17.346Z,13.70
2022-10-09T07:29:16.055Z,13.76
2022-10-09T07:30:13.011Z,13.54
2022-10-09T07:31:10.808Z,13.62
2022-10-09T07:32:10.498Z,13.88
2022-10-09T07:33:12.039Z,13.86
2022-10-09T07:34:08.974Z,13.84
2022-10-09T07:35:05.986Z,14.12
2022-10-09T07:36:04.958Z,14.11
2022-10-09T07:37:01.727Z,14.23
2022-10-09T07:37:58.431Z,13.41
2022-10-09T07:38:57.392Z,14.39
2022-10-09T07:39:56.836Z,14.22
2022-10-09T07:40:54.626Z,13.63
2022-10-09T07:41:52.314Z,14.44
2022-10-09T07:42:49.258Z,14.51
2022-10-09T07:43:46.293Z,14.46
2022-10-09T07:44:42.975Z,14.50
2022-10-09T07:45:39.717Z,14.60
2022-10-09T07:46:36.521Z,14.67
2022-10-09T07:47:33.234Z,14.72
2022-10-09T07:48:30.206Z,14.56
2022-10-09T07:49:26.996Z,14.75
2022-10-09T07:50:27.541Z,14.68
2022-10-09T07:51:28.066Z,14.59
2022-10-09T07:52:25.000Z,14.95
2022-10-09T07:53:31.506Z,15.10
2022-10-09T07:54:32.860Z,14.82
2022-10-09T07:55:33.445Z,14.88
2022-10-09T07:56:36.023Z,14.91
2022-10-09T07:57:32.749Z,14.09
2022-10-09T07:58:29.547Z,15.08
2022-10-09T07:59:26.299Z,15.17
2022-10-09T08:00:23.047Z,15.36
2022-10-09T08:01:21.866Z,15.49
2022-10-09T08:02:18.708Z,15.52
2022-10-09T08:03:15.665Z,15.56
2022-10-09T08:04:12.610Z,15.68
2022-10-09T08:05:09.551Z,15.65
2022-10-09T08:06:06.633Z,15.80
2022-10-09T08:07:03.923Z,15.71
2022-10-09T08:08:00.854Z,15.81
2022-10-09T08:08:59.687Z,15.99
2022-10-09T08:09:56.447Z,15.96
2022-10-09T08:10:53.221Z,16.04
2022-10-09T08:11:50.213Z,16.32
2022-10-09T08:12:47.659Z,16.37
2022-10-09T08:13:46.322Z,15.49
2022-10-09T08:14:43.004Z,15.13
2022-10-09T08:15:41.579Z,16.68
2022-10-09T08:16:38.345Z,16.76
2022-10-09T08:17:35.012Z,16.84
2022-10-09T08:18:31.709Z,16.84
2022-10-09T08:19:28.454Z,16.27
2022-10-09T08:20:25.507Z,16.79
2022-10-09T08:21:23.412Z,16.43
2022-10-09T08:22:20.166Z,17.02
2022-10-09T08:23:16.947Z,16.21
2022-10-09T08:24:14.435Z,17.12
2022-10-09T08:25:11.127Z,16.89
2022-10-09T08:26:19.847Z,16.34
2022-10-09T08:27:16.698Z,17.23
2022-10-09T08:28:13.401Z,17.22
2022-10-09T08:29:11.555Z,17.12
2022-10-09T08:30:08.900Z,17.35
2022-10-09T08:31:13.434Z,17.41
2022-10-09T08:32:10.177Z,17.40
2022-10-09T08:33:07.549Z,17.10
2022-10-09T08:34:04.279Z,17.33
2022-10-09T08:35:00.970Z,17.24
2022-10-09T08:36:07.805Z,17.32
2022-10-09T08:37:04.592Z,15.89
2022-10-09T08:38:01.278Z,17.48
2022-10-09T08:38:58.783Z,17.64
2022-10-09T08:39:55.526Z,17.60
2022-10-09T08:41:03.314Z,17.33
2022-10-09T08:42:03.223Z,17.82
2022-10-09T08:43:11.062Z,17.73
2022-10-09T08:44:27.269Z,17.37
2022-10-09T08:45:24.279Z,17.65
2022-10-09T08:46:33.048Z,17.52
2022-10-09T08:47:43.661Z,17.90
2022-10-09T08:48:45.668Z,17.93
2022-10-09T08:49:55.124Z,17.09
2022-10-09T08:50:55.928Z,17.71
2022-10-09T08:51:54.418Z,17.99
2022-10-09T08:53:02.650Z,18.05
2022-10-09T08:54:10.591Z,17.73
2022-10-09T08:55:16.431Z,18.09
2022-10-09T08:56:15.469Z,18.03
2022-10-09T08:57:17.631Z,18.31
2022-10-09T08:58:18.875Z,18.12
2022-10-09T08:59:15.868Z,18.27
2022-10-09T09:00:21.467Z,18.12
2022-10-09T09:01:26.973Z,18.38
2022-10-09T09:02:56.414Z,18.22
2022-10-09T09:04:24.130Z,18.23
2022-10-09T09:05:56.106Z,18.36
2022-10-09T09:07:22.890Z,18.39
2022-10-09T09:08:54.987Z,18.59
2022-10-09T09:10:04.260Z,18.52
2022-10-09T09:11:03.767Z,18.69
2022-10-09T09:12:04.562Z,18.60
2022-10-09T09:13:27.653Z,18.83
2022-10-09T09:14:42.330Z,18.76
2022-10-09T09:16:06.993Z,18.11
2022-10-09T09:17:15.674Z,18.68
2022-10-09T09:18:46.414Z,18.67
2022-10-09T09:19:55.215Z,18.83
2022-10-09T09:20:54.833Z,18.88
2022-10-09T09:21:53.377Z,18.52
2022-10-09T09:22:51.064Z,18.82
2022-10-09T09:23:48.812Z,18.80
2022-10-09T09:25:01.417Z,17.84
2022-10-09T09:25:59.660Z,18.73
2022-10-09T09:27:03.345Z,18.85
2022-10-09T09:28:19.267Z,18.69
2022-10-09T09:29:22.944Z,18.16
2022-10-09T09:30:33.876Z,18.65
2022-10-09T09:31:37.258Z,18.08
2022-10-09T09:32:34.273Z,18.83
2022-10-09T09:34:00.399Z,18.90
2022-10-09T09:35:13.187Z,18.88
2022-10-09T09:36:23.926Z,18.88
2022-10-09T09:37:20.618Z,18.97
2022-10-09T09:38:17.565Z,18.78
2022-10-09T09:40:37.649Z,18.83
2022-10-09T09:41:34.901Z,18.85
2022-10-09T09:42:32.071Z,18.89
2022-10-09T09:43:28.776Z,18.78
2022-10-09T09:44:26.448Z,18.72
2022-10-09T09:45:26.376Z,18.80
2022-10-09T09:46:30.392Z,18.50
2022-10-09T09:48:13.571Z,18.78
2022-10-09T09:49:23.797Z,19.02
2022-10-09T09:50:56.292Z,18.88
2022-10-09T09:52:01.009Z,18.66
2022-10-09T09:53:22.196Z,19.06
2022-10-09T09:54:26.282Z,18.82
2022-10-09T09:55:30.100Z,18.90
2022-10-09T09:57:10.441Z,19.03
2022-10-09T09:58:13.141Z,18.95
2022-10-09T09:59:45.446Z,19.17
2022-10-09T10:00:53.577Z,18.88
2022-10-09T10:02:04.224Z,18.85
2022-10-09T10:03:13.242Z,19.03
2022-10-09T10:04:20.573Z,18.90
2022-10-09T10:05:20.859Z,19.39
2022-10-09T10:06:31.579Z,19.03
2022-10-09T10:07:35.570Z,19.43
2022-10-09T10:08:34.700Z,19.41
2022-10-09T10:09:32.049Z,19.66
2022-10-09T10:10:28.943Z,18.69
2022-10-09T10:11:25.983Z,19.49
2022-10-09T10:12:22.732Z,19.13
2022-10-09T10:13:23.508Z,19.13
2022-10-09T10:14:20.244Z,19.48
2022-10-09T10:15:29.542Z,19.52
2022-10-09T10:16:29.510Z,19.33
2022-10-09T10:17:32.409Z,19.62
2022-10-09T10:18:37.513Z,19.55
2022-10-09T10:19:38.815Z,19.49
2022-10-09T10:20:49.458Z,19.57
2022-10-09T10:22:02.532Z,19.83
2022-10-09T10:23:00.373Z,19.59
2022-10-09T10:23:57.189Z,19.49
2022-10-09T10:24:58.947Z,18.68
2022-10-09T10:25:59.486Z,19.67
2022-10-09T10:27:06.760Z,19.79
2022-10-09T10:28:17.736Z,19.87
2022-10-09T10:29:25.346Z,19.76
2022-10-09T10:30:22.069Z,19.75
2022-10-09T10:31:53.528Z,19.67
2022-10-09T10:32:59.363Z,18.05
2022-10-09T10:33:58.056Z,19.85
2022-10-09T10:35:03.601Z,19.95
2022-10-09T10:36:01.335Z,19.87
2022-10-09T10:37:13.178Z,19.91
2022-10-09T10:38:18.641Z,19.86
2022-10-09T10:39:32.140Z,19.68
2022-10-09T10:40:56.973Z,19.93
2022-10-09T10:42:01.599Z,19.83
2022-10-09T10:43:10.127Z,19.92
2022-10-09T10:44:15.498Z,19.97
2022-10-09T10:45:20.568Z,19.21
2022-10-09T10:46:37.343Z,20.08
2022-10-09T10:47:45.247Z,19.33
2022-10-09T10:48:47.086Z,20.23
2022-10-09T10:49:43.994Z,20.09
2022-10-09T10:51:06.739Z,19.43
2022-10-09T10:52:35.834Z,20.16
2022-10-09T10:53:49.590Z,20.06
2022-10-09T10:55:11.581Z,19.96
2022-10-09T10:56:28.503Z,19.08
2022-10-09T10:57:51.723Z,20.21
2022-10-09T10:59:04.728Z,20.15
2022-10-09T11:00:12.962Z,20.24
2022-10-09T11:01:48.938Z,20.12
2022-10-09T11:03:07.401Z,20.25
2022-10-09T11:04:25.341Z,19.42
2022-10-09T11:05:27.528Z,20.41
2022-10-09T11:06:47.417Z,20.50
2022-10-09T11:08:17.690Z,20.61
2022-10-09T11:09:48.701Z,19.65
2022-10-09T11:11:03.463Z,20.34
2022-10-09T11:12:43.306Z,20.11
2022-10-09T11:14:20.242Z,20.08
2022-10-09T11:15:44.759Z,20.34
2022-10-09T11:17:02.443Z,20.42
2022-10-09T11:18:17.554Z,20.40
2022-10-09T11:19:48.183Z,19.59
2022-10-09T11:21:05.723Z,20.47
2022-10-09T11:22:19.099Z,19.60
2022-10-09T11:23:40.397Z,20.55
2022-10-09T11:25:07.133Z,20.57
2022-10-09T11:26:12.637Z,20.52
2022-10-09T11:27:34.365Z,20.57
2022-10-09T11:28:42.605Z,20.49
2022-10-09T11:29:51.921Z,20.37
2022-10-09T11:31:08.512Z,20.47
2022-10-09T11:32:16.413Z,19.78
2022-10-09T11:33:19.159Z,20.45
2022-10-09T11:34:39.398Z,20.46
2022-10-09T11:35:53.611Z,20.28
2022-10-09T11:36:50.356Z,20.49
2022-10-09T11:38:13.745Z,19.90
2022-10-09T11:39:32.487Z,20.65
2022-10-09T11:40:39.886Z,20.34
2022-10-09T11:41:38.166Z,20.55
2022-10-09T11:42:35.731Z,20.68
2022-10-09T11:43:50.467Z,20.72
2022-10-09T11:44:55.791Z,20.61
2022-10-09T11:46:09.582Z,20.43
2022-10-09T11:47:16.735Z,20.72
2022-10-09T11:48:45.728Z,19.93
2022-10-09T11:49:57.208Z,20.58
2022-10-09T11:51:03.599Z,20.45
2022-10-09T11:52:19.530Z,19.98
2022-10-09T11:53:20.779Z,20.60
2022-10-09T11:54:21.435Z,20.66
2022-10-09T11:55:25.254Z,20.73
2022-10-09T11:56:27.862Z,20.25
2022-10-09T11:57:29.332Z,19.03
2022-10-09T11:58:26.184Z,20.66
2022-10-09T11:59:36.332Z,20.58
2022-10-09T12:00:36.591Z,20.72
2022-10-09T12:01:44.778Z,20.68
2022-10-09T12:02:43.461Z,20.67
2022-10-09T12:03:40.912Z,20.53
2022-10-09T12:04:53.937Z,20.72
2022-10-09T12:05:51.851Z,20.63
2022-10-09T12:06:54.218Z,20.50
2022-10-09T12:07:50.939Z,20.79
2022-10-09T12:09:05.781Z,20.93
2022-10-09T12:10:02.383Z,21.01
2022-10-09T12:11:16.563Z,20.97
2022-10-09T12:12:16.015Z,20.97
2022-10-09T12:13:42.296Z,19.99
2022-10-09T12:14:38.996Z,20.83
2022-10-09T12:15:50.619Z,20.96
2022-10-09T12:16:47.489Z,20.98
2022-10-09T12:17:49.808Z,20.80
2022-10-09T12:18:48.041Z,21.03
2022-10-09T12:19:45.205Z,20.10
2022-10-09T12:20:48.833Z,20.89
2022-10-09T12:22:00.660Z,21.00
2022-10-09T12:23:25.248Z,20.86
2022-10-09T12:24:23.538Z,20.81
2022-10-09T12:25:51.347Z,20.79
2022-10-09T12:26:50.979Z,21.01
2022-10-09T12:27:48.410Z,21.00
2022-10-09T12:28:51.306Z,20.96
2022-10-09T12:29:55.287Z,20.67
2022-10-09T12:30:52.796Z,21.04
2022-10-09T12:31:53.136Z,20.76
2022-10-09T12:32:57.111Z,21.06
2022-10-09T12:34:02.824Z,20.85
2022-10-09T12:35:04.370Z,20.88
2022-10-09T12:36:15.831Z,20.97
2022-10-09T12:37:16.240Z,20.70
2022-10-09T12:38:25.665Z,20.70
2022-10-09T12:39:24.345Z,20.82
2022-10-09T12:40:25.100Z,20.93
2022-10-09T12:41:34.790Z,20.07
2022-10-09T12:43:35.045Z,20.85
2022-10-09T12:44:39.839Z,20.83
2022-10-09T12:45:44.882Z,20.89
2022-10-09T12:46:41.700Z,20.80
2022-10-09T12:47:38.420Z,20.81
2022-10-09T12:48:42.143Z,21.07
2022-10-09T12:49:38.913Z,20.88
2022-10-09T12:50:36.507Z,20.89
2022-10-09T12:51:33.767Z,20.95
2022-10-09T12:52:32.079Z,21.07
2022-10-09T12:53:29.953Z,21.13
2022-10-09T12:54:30.351Z,21.13
2022-10-09T12:55:43.450Z,21.14
2022-10-09T12:56:40.346Z,20.44
2022-10-09T12:57:39.317Z,20.83
2022-10-09T12:58:38.880Z,20.91
2022-10-09T12:59:35.736Z,21.04
2022-10-09T13:00:35.051Z,20.95
2022-10-09T13:01:34.824Z,21.05
2022-10-09T13:02:31.881Z,21.03
2022-10-09T13:03:41.738Z,21.17
2022-10-09T13:04:38.522Z,20.70
2022-10-09T13:05:38.293Z,21.07
2022-10-09T13:06:45.486Z,21.18
2022-10-09T13:07:47.743Z,21.03
2022-10-09T13:08:51.247Z,21.15
2022-10-09T13:09:48.277Z,21.12
2022-10-09T13:10:44.958Z,21.13
2022-10-09T13:11:45.819Z,21.13
2022-10-09T13:12:51.119Z,20.51
2022-10-09T13:13:53.895Z,21.20
2022-10-09T13:14:55.504Z,21.13
2022-10-09T13:16:00.576Z,21.19
2022-10-09T13:16:57.326Z,21.07
2022-10-09T13:17:54.066Z,20.87
2022-10-09T13:19:02.035Z,21.24
2022-10-09T13:20:02.284Z,21.06